Time;durP1;ratioP1;P1;durP2;ratioP2;P2;SDS_P1;SDS_P2;PMS_P1;PMS_P2;Temp;Humidity;BMP_temperature;BMP_pressure;BME280_temperature;BME280_humidity;BME280_pressure;Samples;Min_cycle;Max_cycle;Signal;HPM_P1;HPM_P2
2022/06/04 00:00:17;;;;;;;11.70;7.68;;;;;;;15.73;59.24;101026.22;5032431;28;20112;-66
2022/06/04 00:02:45;;;;;;;10.27;7.75;;;;;;;15.72;59.23;101016.53;5032674;28;20058;-65
2022/06/04 00:05:13;;;;;;;13.25;8.75;;;;;;;15.78;59.02;101013.66;5030546;28;20077;-66
2022/06/04 00:07:39;;;;;;;12.57;8.15;;;;;;;15.83;58.91;101018.81;5032866;28;20034;-66
2022/06/04 00:15:50;;;;;;;11.70;8.18;;;;;;;15.47;59.86;101011.97;5031912;28;20039;-65
2022/06/04 00:18:17;;;;;;;13.30;8.52;;;;;;;15.42;60.16;101011.25;5033064;28;20064;-65
2022/06/04 00:20:43;;;;;;;11.35;8.32;;;;;;;15.39;60.11;101011.34;5032440;28;20040;-66
2022/06/04 00:23:10;;;;;;;9.88;7.78;;;;;;;15.29;60.46;101012.56;5032336;28;20100;-66
2022/06/04 00:25:39;;;;;;;13.30;8.43;;;;;;;15.31;60.50;101009.88;5031225;28;20037;-66
2022/06/04 00:28:08;;;;;;;13.70;8.75;;;;;;;15.32;60.52;101015.13;5032221;28;20030;-65
2022/06/04 00:30:34;;;;;;;11.40;8.43;;;;;;;15.41;60.06;101006.88;5032712;28;20095;-64
2022/06/04 00:33:00;;;;;;;14.20;8.55;;;;;;;15.43;60.21;101006.81;5032715;28;20037;-65
2022/06/04 00:35:27;;;;;;;11.13;8.45;;;;;;;15.44;60.08;101014.75;5031883;28;20037;-64
2022/06/04 00:37:52;;;;;;;12.25;8.05;;;;;;;15.41;60.21;101013.97;5032379;28;20051;-65
2022/06/04 00:40:23;;;;;;;13.30;8.95;;;;;;;15.42;60.57;101005.97;5032674;28;20116;-65
2022/06/04 00:42:49;;;;;;;17.77;10.38;;;;;;;15.35;60.44;100990.31;5032772;28;20478;-65
2022/06/04 00:45:20;;;;;;;13.38;8.40;;;;;;;15.23;60.96;100991.56;5032413;28;20030;-65
2022/06/04 00:47:45;;;;;;;14.10;9.55;;;;;;;15.21;60.77;100982.81;5035504;28;20025;-64
2022/06/04 00:50:13;;;;;;;12.30;8.57;;;;;;;15.18;60.77;100990.84;5038990;28;20495;-63
2022/06/04 00:52:39;;;;;;;14.25;9.23;;;;;;;15.21;60.83;100986.34;5032187;28;20388;-65
2022/06/04 00:55:07;;;;;;;12.57;8.77;;;;;;;15.18;60.91;100991.72;5031767;28;20136;-65
2022/06/04 00:58:06;;;;;;;14.00;9.32;;;;;;;15.13;61.88;100995.44;5032269;28;20083;-66
2022/06/04 01:01:03;;;;;;;14.25;9.40;;;;;;;15.17;61.61;100989.13;5032528;28;20046;-65
2022/06/04 01:03:28;;;;;;;9.85;7.53;;;;;;;15.17;60.81;100987.34;5027300;28;20409;-65
2022/06/04 01:06:02;;;;;;;11.88;7.80;;;;;;;15.14;61.41;100991.88;5031858;28;20041;-64
2022/06/04 01:08:49;;;;;;;15.80;8.38;;;;;;;15.11;61.34;100991.94;5031755;28;20029;-66
2022/06/04 01:12:09;;;;;;;12.40;8.88;;;;;;;15.04;61.88;100991.28;5032318;28;20030;-64
2022/06/04 01:14:47;;;;;;;12.27;8.98;;;;;;;14.97;61.86;100998.53;5028081;28;20045;-64
2022/06/04 01:17:33;;;;;;;11.48;8.68;;;;;;;14.83;63.01;101011.28;5030277;28;20064;-65
2022/06/04 01:20:10;;;;;;;13.55;8.75;;;;;;;14.88;62.41;101005.88;5032004;28;20485;-65
2022/06/04 01:22:44;;;;;;;12.73;8.68;;;;;;;14.84;62.87;101006.88;5031381;28;20036;-64
2022/06/04 01:25:23;;;;;;;11.30;7.20;;;;;;;14.79;62.33;101007.88;5033278;28;20033;-64
2022/06/04 01:28:00;;;;;;;12.57;8.18;;;;;;;14.79;62.68;101004.34;5035406;28;20148;-63
2022/06/04 01:30:36;;;;;;;12.20;7.45;;;;;;;14.82;62.43;101004.28;5034847;28;20389;-65
2022/06/04 01:33:07;;;;;;;12.25;7.28;;;;;;;14.79;62.28;101002.56;5034792;28;20088;-64
2022/06/04 01:35:53;;;;;;;12.50;8.25;;;;;;;14.65;63.09;101007.41;5036118;28;20065;-64
2022/06/04 01:38:36;;;;;;;12.73;9.00;;;;;;;14.59;63.57;100993.50;5030482;28;20112;-64
2022/06/04 01:41:05;;;;;;;;;;;;;;;14.69;63.83;101008.19;5034624;28;20048;-65
2022/06/04 01:44:00;;;;;;;10.27;7.03;;;;;;;14.65;63.31;100993.34;5035341;28;19917;-64
2022/06/04 01:46:32;;;;;;;11.60;7.18;;;;;;;14.54;63.27;101001.56;5030746;28;20052;-64
2022/06/04 01:49:03;;;;;;;13.73;8.70;;;;;;;14.62;62.81;100988.13;5035313;28;20405;-64
2022/06/04 01:51:32;;;;;;;11.95;7.97;;;;;;;14.64;62.69;100981.88;5034522;28;20102;-64
2022/06/04 01:54:03;;;;;;;12.52;8.38;;;;;;;14.64;62.53;100978.34;5034752;28;20041;-64
2022/06/04 01:56:34;;;;;;;16.00;8.30;;;;;;;14.46;63.58;100979.72;5035230;28;20033;-65
2022/06/04 01:59:24;;;;;;;11.45;7.50;;;;;;;14.48;64.27;100986.72;5035188;28;20062;-65
2022/06/04 02:01:52;;;;;;;11.05;7.68;;;;;;;14.65;62.52;100982.75;5034991;28;20377;-64
2022/06/04 02:04:23;;;;;;;11.27;7.32;;;;;;;14.80;62.11;100977.00;5034919;28;20182;-64
2022/06/04 02:09:45;;;;;;;8.68;6.50;;;;;;;14.83;61.84;100968.09;5035130;28;20125;-66
2022/06/04 02:12:12;;;;;;;8.43;6.43;;;;;;;14.92;61.52;100965.16;5027981;28;20033;-64
2022/06/04 02:14:39;;;;;;;11.57;6.85;;;;;;;15.02;61.25;100958.69;5034268;28;20070;-64
2022/06/04 02:17:08;;;;;;;9.85;6.90;;;;;;;15.09;60.98;100962.03;5034885;28;20033;-66
2022/06/04 02:19:33;;;;;;;12.15;7.68;;;;;;;15.08;61.09;100958.53;5033557;28;20449;-66
2022/06/04 02:21:59;;;;;;;10.20;6.70;;;;;;;15.17;60.84;100950.28;5034670;28;20112;-66
2022/06/04 02:24:25;;;;;;;11.38;7.47;;;;;;;15.26;60.58;100954.41;5034408;28;20148;-65
2022/06/04 02:26:51;;;;;;;8.38;6.30;;;;;;;15.25;60.52;100958.84;5033373;28;20033;-67
2022/06/04 02:29:19;;;;;;;10.27;6.40;;;;;;;15.28;60.46;100953.47;5034535;28;20065;-65
2022/06/04 02:31:51;;;;;;;11.32;7.38;;;;;;;15.34;60.52;100954.19;5034439;28;20025;-67
2022/06/04 02:34:19;;;;;;;;;;;;;;;15.22;61.79;100952.78;5034976;28;20482;-67
2022/06/04 02:37:12;;;;;;;10.93;6.70;;;;;;;15.14;61.78;100947.72;5033679;28;19912;-66
2022/06/04 02:39:47;;;;;;;11.88;6.13;;;;;;;15.14;61.69;100960.09;5031502;28;20056;-66
2022/06/04 02:42:37;;;;;;;10.45;7.13;;;;;;;15.21;61.99;100957.22;5034176;28;20030;-67
2022/06/04 02:45:17;;;;;;;12.07;7.28;;;;;;;15.30;61.20;100966.66;5034631;28;20037;-65
2022/06/04 02:47:48;;;;;;;9.77;6.93;;;;;;;15.33;61.02;100958.59;5034081;28;20052;-64
2022/06/04 02:50:20;;;;;;;10.23;7.40;;;;;;;15.35;60.99;100954.13;5029943;28;20033;-65
2022/06/04 02:52:47;;;;;;;11.77;7.18;;;;;;;15.31;61.15;100962.22;5032836;28;20068;-65
2022/06/04 02:55:16;;;;;;;12.40;7.95;;;;;;;15.34;61.21;100962.97;5027858;28;20112;-65
2022/06/04 02:57:47;;;;;;;13.05;8.00;;;;;;;15.30;61.70;100952.53;5031871;28;20030;-64
2022/06/04 03:00:17;;;;;;;12.98;7.80;;;;;;;15.42;61.01;100952.16;5027654;28;20030;-65
2022/06/04 03:02:43;;;;;;;9.55;7.07;;;;;;;15.40;61.06;100949.56;5033752;28;20084;-65
2022/06/04 03:05:14;;;;;;;11.05;7.60;;;;;;;15.43;61.31;100948.56;5033634;28;20060;-65
2022/06/04 03:07:41;;;;;;;12.55;6.82;;;;;;;15.61;60.72;100955.06;5033678;28;20457;-65
2022/06/04 03:10:29;;;;;;;8.60;5.63;;;;;;;15.69;60.43;100955.69;5033340;28;20136;-65
2022/06/04 03:12:55;;;;;;;8.90;5.53;;;;;;;15.89;59.86;100950.59;5032375;28;20052;-66
2022/06/04 03:15:21;;;;;;;11.18;6.20;;;;;;;15.95;59.97;100955.66;5033846;28;20026;-65
2022/06/04 03:17:48;;;;;;;9.95;6.57;;;;;;;16.01;59.70;100959.91;5033694;28;20044;-65
2022/06/04 03:20:17;;;;;;;8.70;5.20;;;;;;;16.12;59.49;100962.19;5027582;28;20069;-65
2022/06/04 03:22:42;;;;;;;9.20;6.00;;;;;;;16.10;59.54;100964.00;5032734;28;20380;-65
2022/06/04 03:25:08;;;;;;;9.75;6.40;;;;;;;16.06;59.72;100959.72;5032257;28;20477;-64
2022/06/04 03:27:34;;;;;;;9.52;6.32;;;;;;;16.09;59.77;100956.97;5029810;28;20083;-64
2022/06/04 03:30:00;;;;;;;8.23;5.53;;;;;;;16.18;59.79;100948.69;5033484;28;20040;-65
2022/06/04 03:32:25;;;;;;;10.20;6.53;;;;;;;16.26;59.58;100943.97;5033710;28;20052;-65
2022/06/04 03:34:50;;;;;;;7.93;5.90;;;;;;;16.34;59.31;100946.34;5032125;28;20045;-66
2022/06/04 03:37:16;;;;;;;8.88;5.90;;;;;;;16.37;59.24;100940.94;5032298;28;20428;-65
2022/06/04 03:39:41;;;;;;;9.40;6.38;;;;;;;16.31;59.65;100944.66;5031853;28;20038;-65
2022/06/04 03:42:07;;;;;;;6.22;5.53;;;;;;;16.38;59.51;100937.38;5033449;28;20057;-66
2022/06/04 03:44:33;;;;;;;10.05;6.10;;;;;;;16.51;59.18;100943.94;5032169;28;20042;-65
2022/06/04 03:46:58;;;;;;;11.15;6.43;;;;;;;16.66;58.81;100940.72;5032824;28;20392;-66
2022/06/04 03:49:24;;;;;;;7.97;5.85;;;;;;;16.69;58.77;100937.94;5032401;28;20072;-66
2022/06/04 03:51:50;;;;;;;10.00;5.85;;;;;;;16.78;58.78;100947.38;5031845;28;20036;-66
2022/06/04 03:54:15;;;;;;;10.02;5.55;;;;;;;16.82;58.76;100943.66;5032647;28;20042;-66
2022/06/04 03:56:41;;;;;;;7.85;5.90;;;;;;;16.80;58.86;100937.56;5031599;28;20038;-66
2022/06/04 03:59:06;;;;;;;8.75;5.70;;;;;;;16.89;58.60;100939.00;5032858;28;20120;-65
2022/06/04 04:01:32;;;;;;;6.97;5.45;;;;;;;16.87;58.82;100946.16;5032609;28;20046;-63
2022/06/04 04:03:59;;;;;;;9.68;5.88;;;;;;;16.92;58.81;100947.72;5032740;28;20061;-65
2022/06/04 04:06:29;;;;;;;9.57;5.65;;;;;;;17.02;58.65;100955.31;5033018;28;20037;-65
2022/06/04 04:08:55;;;;;;;6.78;5.10;;;;;;;17.12;58.22;100957.56;5032709;28;20045;-65
2022/06/04 04:11:24;;;;;;;7.55;5.22;;;;;;;17.17;58.13;100949.41;5032421;28;20143;-64
2022/06/04 04:13:51;;;;;;;6.15;4.75;;;;;;;17.25;57.99;100952.63;5032722;28;20025;-65
2022/06/04 04:16:18;;;;;;;8.30;5.25;;;;;;;17.32;57.98;100955.91;5032712;28;20116;-65
2022/06/04 04:18:44;;;;;;;6.85;4.85;;;;;;;17.30;58.05;100960.38;5032483;28;20052;-66
2022/06/04 04:21:14;;;;;;;9.23;5.10;;;;;;;17.35;58.02;100958.41;5032456;28;20037;-64
2022/06/04 04:23:40;;;;;;;6.80;4.30;;;;;;;17.44;57.87;100958.91;5032882;28;20489;-65
2022/06/04 04:26:08;;;;;;;6.07;4.32;;;;;;;17.49;57.59;100956.06;5030745;28;20037;-65
2022/06/04 04:28:35;;;;;;;10.75;4.72;;;;;;;17.53;57.55;100962.13;5030701;28;20041;-65
2022/06/04 04:31:00;;;;;;;6.63;4.72;;;;;;;17.58;57.53;100960.13;5033113;28;20037;-66
2022/06/04 04:33:26;;;;;;;6.38;4.03;;;;;;;17.58;57.59;100949.50;5033264;28;20033;-66
2022/06/04 04:35:52;;;;;;;7.57;4.18;;;;;;;17.83;56.91;100944.91;5027847;28;20093;-66
2022/06/04 04:38:18;;;;;;;6.07;4.07;;;;;;;17.92;56.87;100947.19;5032583;28;20473;-66
2022/06/04 04:40:44;;;;;;;6.75;4.43;;;;;;;17.93;56.94;100943.59;5031501;28;20038;-66
2022/06/04 04:43:10;;;;;;;6.18;4.45;;;;;;;17.98;57.06;100946.03;5032784;28;20029;-66
2022/06/04 04:45:36;;;;;;;6.10;4.40;;;;;;;18.12;56.77;100946.31;5032167;28;20393;-66
2022/06/04 04:48:02;;;;;;;7.22;4.15;;;;;;;18.18;56.59;100950.47;5032244;28;20033;-66
2022/06/04 04:50:34;;;;;;;7.82;4.32;;;;;;;18.18;56.63;100943.38;5032043;28;20029;-66
2022/06/04 04:53:03;;;;;;;9.50;4.40;;;;;;;18.27;56.50;100943.88;5032098;28;20037;-67
2022/06/04 04:55:29;;;;;;;9.10;4.47;;;;;;;18.39;56.21;100943.34;5032580;28;20044;-66
2022/06/04 04:57:55;;;;;;;6.03;4.03;;;;;;;18.37;56.25;100945.22;5032066;28;20029;-67
2022/06/04 05:00:20;;;;;;;5.97;3.88;;;;;;;18.45;56.13;100943.94;5034215;28;20033;-66
2022/06/04 05:02:46;;;;;;;7.78;4.80;;;;;;;18.62;55.97;100939.63;5036065;28;20060;-65
2022/06/04 05:05:13;;;;;;;5.88;4.00;;;;;;;18.80;55.70;100943.28;5035523;28;20050;-65
2022/06/04 05:07:40;;;;;;;4.97;3.45;;;;;;;19.05;54.95;100937.66;5035216;28;20056;-66
2022/06/04 05:10:06;;;;;;;8.88;4.30;;;;;;;19.07;55.11;100938.44;5035197;28;20036;-65
2022/06/04 05:12:31;;;;;;;4.38;3.20;;;;;;;19.23;54.64;100941.22;5035009;28;20025;-66
2022/06/04 05:14:57;;;;;;;6.68;3.67;;;;;;;19.32;54.59;100946.97;5035928;28;20447;-66
2022/06/04 05:17:22;;;;;;;5.47;3.50;;;;;;;19.50;54.25;100947.84;5036069;28;20033;-66
2022/06/04 05:19:48;;;;;;;5.90;3.47;;;;;;;19.60;54.19;100946.47;5035785;28;20080;-67
2022/06/04 05:22:13;;;;;;;5.22;3.75;;;;;;;19.68;54.00;100960.31;5033669;28;20080;-66
2022/06/04 05:24:38;;;;;;;7.07;4.25;;;;;;;19.74;53.78;100958.25;5018428;28;20128;-66
2022/06/04 05:27:05;;;;;;;7.32;3.55;;;;;;;19.85;53.63;100955.91;5032690;28;20065;-66
2022/06/04 05:29:34;;;;;;;7.05;4.22;;;;;;;19.84;53.77;100963.06;5034863;28;20025;-66
2022/06/04 05:32:02;;;;;;;6.50;4.35;;;;;;;19.75;54.15;100971.53;5032948;28;20056;-65
2022/06/04 05:34:28;;;;;;;8.85;4.07;;;;;;;19.67;54.05;100963.91;5035441;28;20094;-66
2022/06/04 05:36:54;;;;;;;6.10;4.13;;;;;;;19.70;54.13;100962.88;5034941;28;20033;-65
2022/06/04 05:39:20;;;;;;;8.02;3.70;;;;;;;19.89;53.74;100963.69;5035951;28;20034;-66
2022/06/04 05:41:46;;;;;;;6.13;4.07;;;;;;;19.97;53.60;100959.75;5034761;28;20445;-67
2022/06/04 05:44:12;;;;;;;5.35;3.88;;;;;;;20.00;53.51;100964.94;5033839;28;20533;-66
2022/06/04 05:46:42;;;;;;;7.13;4.10;;;;;;;20.20;53.11;100970.09;5035353;28;20099;-67
2022/06/04 05:49:11;;;;;;;6.45;4.00;;;;;;;20.32;52.89;100972.13;5031421;28;20029;-68
2022/06/04 05:51:39;;;;;;;5.68;3.83;;;;;;;20.48;52.59;100971.31;5035156;28;20107;-66
2022/06/04 05:54:05;;;;;;;6.40;3.83;;;;;;;20.65;52.46;100968.63;5034693;28;20033;-66
2022/06/04 05:56:35;;;;;;;5.93;4.05;;;;;;;20.61;52.74;100964.38;5036312;28;20037;-66
2022/06/04 05:59:03;;;;;;;8.93;4.32;;;;;;;20.50;52.84;100969.44;5036133;28;20079;-66
2022/06/04 06:01:31;;;;;;;6.13;4.32;;;;;;;20.73;52.47;100966.38;5035261;28;20530;-66
2022/06/04 06:03:57;;;;;;;6.30;3.55;;;;;;;20.80;52.28;100966.94;5034361;28;20057;-67
2022/06/04 06:06:27;;;;;;;7.25;4.10;;;;;;;20.67;52.62;100964.06;5034826;28;20542;-67
2022/06/04 06:08:55;;;;;;;5.70;3.90;;;;;;;20.60;53.16;100970.69;5035736;28;20036;-67
2022/06/04 06:11:21;;;;;;;10.02;4.65;;;;;;;20.54;53.12;100979.00;5032866;28;20025;-67
2022/06/04 06:13:48;;;;;;;7.43;4.70;;;;;;;20.38;53.26;100977.13;5034098;28;20042;-67
2022/06/04 06:16:19;;;;;;;9.15;4.47;;;;;;;20.50;53.09;100983.63;5033572;28;20031;-65
2022/06/04 06:18:45;;;;;;;7.47;4.25;;;;;;;20.70;52.70;100982.56;5034184;28;20453;-65
2022/06/04 06:21:16;;;;;;;7.82;4.50;;;;;;;21.05;52.08;100993.13;5033575;28;20115;-65
2022/06/04 06:23:43;;;;;;;8.52;4.80;;;;;;;21.09;51.97;100984.00;5033647;28;20041;-65
2022/06/04 06:26:11;;;;;;;7.05;4.28;;;;;;;21.24;51.59;100999.19;5034693;28;20037;-66
2022/06/04 06:28:39;;;;;;;6.93;4.05;;;;;;;21.24;51.17;100987.63;5032287;28;20026;-66
2022/06/04 06:31:06;;;;;;;6.05;3.80;;;;;;;21.32;51.00;100980.03;5049340;28;20038;-66
2022/06/04 06:33:32;;;;;;;5.38;3.85;;;;;;;21.34;50.87;100992.41;5032017;28;20188;-66
2022/06/04 06:35:59;;;;;;;7.07;4.22;;;;;;;21.39;50.85;100982.31;5033864;28;20057;-65
2022/06/04 06:38:25;;;;;;;8.05;4.45;;;;;;;21.20;50.98;100989.59;5034227;28;20041;-64
2022/06/04 06:40:53;;;;;;;5.65;3.80;;;;;;;21.32;50.90;100999.63;5037251;28;20034;-65
2022/06/04 06:43:19;;;;;;;5.45;3.88;;;;;;;21.23;51.21;100994.78;5034136;28;20377;-65
2022/06/04 06:45:44;;;;;;;8.40;3.83;;;;;;;21.24;51.14;101001.00;5034279;28;20496;-66
2022/06/04 06:48:10;;;;;;;8.07;4.13;;;;;;;21.13;51.13;100996.25;5032830;28;20037;-65
2022/06/04 06:50:37;;;;;;;6.20;4.38;;;;;;;21.25;50.99;100990.19;5033499;28;20041;-65
2022/06/04 06:53:03;;;;;;;7.07;4.97;;;;;;;21.28;51.03;100991.84;5033542;28;20029;-66
2022/06/04 06:55:28;;;;;;;7.50;4.30;;;;;;;21.38;50.91;100983.25;5033611;28;20030;-65
2022/06/04 06:57:54;;;;;;;9.10;4.55;;;;;;;21.46;50.92;100985.47;5033757;28;20480;-65
2022/06/04 07:00:19;;;;;;;9.80;5.05;;;;;;;21.39;50.65;100981.44;5030810;28;20044;-65
2022/06/04 07:02:45;;;;;;;8.60;5.25;;;;;;;21.13;51.03;100988.22;5033236;28;20127;-66
2022/06/04 07:05:11;;;;;;;8.27;5.00;;;;;;;21.48;50.24;100970.22;5032313;28;20037;-66
2022/06/04 07:07:37;;;;;;;11.18;5.35;;;;;;;21.53;50.16;100975.28;5032208;28;20091;-65
2022/06/04 07:10:04;;;;;;;6.57;5.00;;;;;;;21.54;50.31;100969.84;5033507;28;20125;-73
2022/06/04 07:12:29;;;;;;;9.60;4.95;;;;;;;21.51;50.51;100970.06;5032628;28;20053;-68
2022/06/04 07:14:54;;;;;;;7.20;5.32;;;;;;;21.67;50.31;100967.34;5032179;28;20117;-68
2022/06/04 07:17:20;;;;;;;7.22;4.53;;;;;;;21.85;49.78;100974.25;5034654;28;20041;-68
2022/06/04 07:19:45;;;;;;;6.40;4.20;;;;;;;22.22;48.86;100964.09;5034485;28;20108;-67
2022/06/04 07:22:11;;;;;;;6.88;4.55;;;;;;;22.45;48.43;100972.50;5034641;28;20047;-67
2022/06/04 07:24:37;;;;;;;8.60;4.25;;;;;;;22.48;48.13;100973.16;5033257;28;20029;-67
2022/06/04 07:27:03;;;;;;;7.32;4.20;;;;;;;22.64;48.03;100962.38;5030580;28;20040;-68
2022/06/04 07:29:28;;;;;;;6.15;4.22;;;;;;;22.70;48.01;100962.00;5034396;28;20033;-67
2022/06/04 07:31:54;;;;;;;5.90;4.35;;;;;;;22.70;48.10;100961.09;5032223;28;20037;-68
2022/06/04 07:34:20;;;;;;;6.28;4.32;;;;;;;22.46;48.66;100979.56;5035665;28;20034;-68
2022/06/04 07:36:46;;;;;;;9.02;4.82;;;;;;;22.35;48.99;100972.22;5032611;28;20041;-68
2022/06/04 07:39:14;;;;;;;7.47;4.22;;;;;;;22.50;48.60;100981.09;5033917;28;20039;-68
2022/06/04 07:41:45;;;;;;;7.25;4.28;;;;;;;22.55;48.34;100984.38;5032385;28;20033;-66
2022/06/04 07:44:14;;;;;;;6.60;4.07;;;;;;;22.49;48.53;100980.25;5029360;28;20103;-67
2022/06/04 07:46:40;;;;;;;5.05;3.67;;;;;;;22.69;48.06;100976.31;5033937;28;20522;-67
2022/06/04 07:49:07;;;;;;;4.93;3.30;;;;;;;22.82;48.03;100985.31;5032008;28;20384;-68
2022/06/04 07:51:33;;;;;;;5.10;4.10;;;;;;;22.83;48.06;100983.50;5033781;28;20030;-68
2022/06/04 07:53:59;;;;;;;5.65;3.95;;;;;;;22.79;48.07;100981.97;5031994;28;20041;-68
2022/06/04 07:56:24;;;;;;;6.97;3.50;;;;;;;22.82;47.93;100979.97;5033571;28;20041;-69
2022/06/04 07:58:50;;;;;;;6.20;3.42;;;;;;;22.78;48.17;100983.78;5033799;28;20037;-67
2022/06/04 08:01:17;;;;;;;6.07;3.17;;;;;;;23.06;47.63;100987.41;5033597;28;20065;-68
2022/06/04 08:03:45;;;;;;;4.57;3.20;;;;;;;23.06;47.57;100990.09;5033002;28;20064;-69
2022/06/04 08:06:13;;;;;;;6.55;3.55;;;;;;;22.98;47.55;100981.69;5033636;28;20392;-68
2022/06/04 08:08:39;;;;;;;7.47;3.70;;;;;;;23.04;47.54;100990.19;5032869;28;20057;-67
2022/06/04 08:13:51;;;;;;;4.38;2.88;;;;;;;23.33;46.48;100993.66;5031463;28;20040;-69
2022/06/04 08:16:17;;;;;;;6.10;3.42;;;;;;;23.45;45.65;101008.09;5036243;28;20120;-69
2022/06/04 08:18:42;;;;;;;4.18;3.03;;;;;;;23.77;45.24;101014.03;5033509;28;20037;-68
2022/06/04 08:21:08;;;;;;;4.63;3.05;;;;;;;23.76;44.68;101009.63;5040808;28;20033;-69
2022/06/04 08:23:34;;;;;;;4.60;2.83;;;;;;;23.99;44.32;101010.78;5046457;28;20089;-69
2022/06/04 08:25:59;;;;;;;5.45;2.53;;;;;;;24.43;43.27;101008.72;5038157;28;20038;-68
2022/06/04 08:28:25;;;;;;;4.45;2.60;;;;;;;24.12;43.00;101007.25;5032541;28;20492;-67
2022/06/04 08:31:02;;;;;;;7.07;2.70;;;;;;;24.06;42.24;101011.22;5036952;28;20037;-69
2022/06/04 08:33:28;;;;;;;4.10;2.75;;;;;;;23.88;43.34;101010.63;5033154;28;20038;-67
2022/06/04 08:35:53;;;;;;;5.03;2.60;;;;;;;23.65;43.50;101009.44;5034147;28;20087;-68
2022/06/04 08:38:18;;;;;;;5.30;2.40;;;;;;;23.40;43.43;101006.69;5033206;28;20457;-68
2022/06/04 08:40:51;;;;;;;5.80;1.98;;;;;;;23.71;43.10;101003.72;5035983;28;20038;-69
2022/06/04 08:43:38;;;;;;;3.25;2.03;;;;;;;23.56;43.53;101004.72;5037214;28;20034;-69
2022/06/04 08:46:29;;;;;;;3.00;1.90;;;;;;;23.66;43.22;101005.88;5044352;28;20119;-69
2022/06/04 08:49:00;;;;;;;2.88;2.00;;;;;;;23.85;42.63;101016.19;5015563;28;20421;-67
2022/06/04 08:51:29;;;;;;;3.78;1.80;;;;;;;24.04;42.88;101013.16;5037342;28;20021;-69
2022/06/04 08:53:56;;;;;;;4.90;2.33;;;;;;;23.92;43.11;101017.53;5036047;28;20473;-67
2022/06/04 08:59:29;;;;;;;3.05;2.33;;;;;;;23.91;42.86;101023.00;5036906;28;20048;-69
2022/06/04 09:01:58;;;;;;;3.95;2.28;;;;;;;24.05;42.60;101015.72;5037307;28;20040;-68
2022/06/04 09:04:42;;;;;;;3.90;2.08;;;;;;;24.27;41.03;101011.56;5035361;28;20069;-68
2022/06/04 09:07:35;;;;;;;5.38;2.50;;;;;;;24.25;40.86;101014.34;5036320;28;20025;-68
2022/06/04 09:10:25;;;;;;;4.70;2.22;;;;;;;24.44;40.76;101022.03;5036130;28;20036;-68
2022/06/04 09:12:59;;;;;;;3.20;2.20;;;;;;;24.69;41.43;101018.47;5027112;28;20044;-69
2022/06/04 09:15:34;;;;;;;3.67;2.40;;;;;;;24.80;41.22;101018.56;5034757;28;20075;-68
2022/06/04 09:18:11;;;;;;;4.68;2.40;;;;;;;25.08;40.20;101024.66;5036257;28;20033;-68
2022/06/04 09:20:41;;;;;;;3.50;2.45;;;;;;;25.32;39.94;101016.66;5036215;28;20060;-69
2022/06/04 09:23:19;;;;;;;5.38;2.83;;;;;;;24.98;39.64;101012.88;5035998;28;20029;-68
2022/06/04 09:26:00;;;;;;;3.05;2.42;;;;;;;25.25;39.88;101020.78;5036381;28;20044;-68
2022/06/04 09:28:32;;;;;;;2.85;2.10;;;;;;;25.25;40.12;101021.63;5036090;28;20029;-69
2022/06/04 09:31:06;;;;;;;4.40;2.50;;;;;;;25.55;39.92;101020.34;5034570;28;20025;-67
2022/06/04 09:33:48;;;;;;;6.85;2.88;;;;;;;25.51;39.22;101026.94;5035274;28;20025;-68
2022/06/04 09:36:18;;;;;;;4.18;2.30;;;;;;;25.25;39.83;101024.31;5030025;28;20121;-69
2022/06/04 09:38:56;;;;;;;4.72;2.58;;;;;;;25.35;39.60;101021.84;5036188;28;20476;-71
2022/06/04 09:41:24;;;;;;;4.38;2.50;;;;;;;25.47;40.15;101017.38;5035612;28;20370;-70
2022/06/04 09:44:08;;;;;;;4.88;2.50;;;;;;;25.54;38.76;101026.72;5034951;28;20107;-68
2022/06/04 09:46:35;;;;;;;3.85;2.20;;;;;;;25.15;39.78;101025.13;5035898;28;20029;-67
2022/06/04 09:49:08;;;;;;;5.53;2.90;;;;;;;24.96;39.10;101020.19;5035700;28;20117;-68
2022/06/04 09:51:42;;;;;;;4.45;2.70;;;;;;;25.19;39.01;101024.78;5032366;28;20045;-69
2022/06/04 09:54:21;;;;;;;3.63;2.47;;;;;;;25.34;39.56;101024.66;5037684;28;20034;-68
2022/06/04 09:56:52;;;;;;;4.15;2.40;;;;;;;25.56;39.31;101030.13;5034676;28;20473;-69
2022/06/04 09:59:24;;;;;;;5.25;2.60;;;;;;;25.56;38.14;101038.22;5048265;28;20094;-68
2022/06/04 10:02:11;;;;;;;5.22;2.58;;;;;;;25.64;38.72;101033.13;5040474;28;20041;-70
2022/06/04 10:04:47;;;;;;;3.40;2.35;;;;;;;25.75;38.41;101030.50;5032500;28;20132;-68
2022/06/04 10:07:16;;;;;;;5.47;3.30;;;;;;;25.66;38.79;101036.56;5034594;28;20029;-69
2022/06/04 10:09:57;;;;;;;6.13;3.10;;;;;;;25.98;38.09;101038.69;5035533;28;20025;-68
2022/06/04 10:15:41;;;;;;;4.65;3.05;;;;;;;25.33;39.48;101034.53;5034574;28;20040;-70
2022/06/04 10:18:32;;;;;;;5.72;3.33;;;;;;;25.68;39.24;101031.06;5036792;28;20041;-69
2022/06/04 10:21:05;;;;;;;5.00;2.88;;;;;;;25.75;38.89;101030.50;5034023;28;20030;-67
2022/06/04 10:23:42;;;;;;;4.50;3.03;;;;;;;25.79;39.29;101041.91;5033350;28;20778;-67
2022/06/04 10:26:31;;;;;;;4.20;3.05;;;;;;;25.59;39.10;101029.91;5029493;28;20037;-67
2022/06/04 10:29:11;;;;;;;6.78;3.25;;;;;;;25.65;39.54;101024.06;5034251;28;20037;-67
2022/06/04 10:32:00;;;;;;;6.13;3.10;;;;;;;25.68;39.55;101023.84;5031758;28;20033;-67
2022/06/04 10:34:55;;;;;;;7.88;3.47;;;;;;;25.29;38.62;101028.53;5035045;28;20037;-66
2022/06/04 10:37:41;;;;;;;4.95;3.00;;;;;;;25.10;39.92;101020.09;5029499;28;20119;-66
2022/06/04 10:40:21;;;;;;;4.10;2.47;;;;;;;25.31;39.71;101026.56;5031697;28;20051;-67
2022/06/04 10:42:53;;;;;;;5.90;3.35;;;;;;;25.32;39.45;101038.19;5031151;28;20387;-68
2022/06/04 10:45:23;;;;;;;;;;;;;;;25.08;38.53;101036.28;5027456;28;20295;-65
2022/06/04 10:47:55;;;;;;;7.68;2.90;;;;;;;24.93;39.20;101047.25;5035182;28;19923;-68
2022/06/04 10:53:56;;;;;;;5.43;2.80;;;;;;;25.24;39.62;101032.50;5035587;28;20035;-68
2022/06/04 10:56:28;;;;;;;7.03;3.20;;;;;;;24.98;40.13;101029.84;5033405;28;20029;-69
2022/06/04 10:59:19;;;;;;;5.00;3.10;;;;;;;24.68;41.86;101037.41;5033155;28;20032;-68
2022/06/04 11:02:02;;;;;;;6.80;3.15;;;;;;;25.05;41.12;101035.63;5031837;28;20060;-68
2022/06/04 11:04:34;;;;;;;5.03;3.60;;;;;;;25.26;40.97;101034.13;5028014;28;20057;-67
2022/06/04 11:07:36;;;;;;;7.25;3.40;;;;;;;25.26;40.23;101034.13;5032688;28;20095;-68
2022/06/04 11:10:11;;;;;;;6.07;3.43;;;;;;;25.58;40.01;101030.06;5029216;28;20045;-68
2022/06/04 11:12:43;;;;;;;6.18;3.20;;;;;;;25.82;39.59;101027.38;5018307;28;20088;-69
2022/06/04 11:15:28;;;;;;;6.88;3.13;;;;;;;25.66;39.13;101043.78;5028465;28;20037;-68
2022/06/04 11:18:27;;;;;;;6.07;2.97;;;;;;;25.40;39.05;101032.25;5032050;28;20048;-68
2022/06/04 11:21:01;;;;;;;4.15;3.13;;;;;;;25.03;40.12;101035.75;5028290;28;20036;-69
2022/06/04 11:24:09;;;;;;;3.65;2.80;;;;;;;25.37;38.86;101030.63;5033968;28;20084;-68
2022/06/04 11:26:40;;;;;;;7.18;3.20;;;;;;;25.72;39.32;101021.78;5012807;28;20167;-68
2022/06/04 11:29:08;;;;;;;6.00;2.88;;;;;;;26.01;38.67;101025.88;5033840;28;20136;-69
2022/06/04 11:31:49;;;;;;;7.35;3.30;;;;;;;25.89;38.72;101037.53;5034259;28;20044;-69
2022/06/04 11:34:26;;;;;;;5.28;2.75;;;;;;;26.06;39.02;101027.34;5029789;28;20134;-68
2022/06/04 11:37:17;;;;;;;3.75;2.50;;;;;;;26.56;37.23;101026.13;5033152;28;20053;-69
2022/06/04 11:39:54;;;;;;;4.32;3.03;;;;;;;26.64;36.86;101030.94;5034313;28;20028;-69
2022/06/04 11:42:35;;;;;;;5.55;3.20;;;;;;;26.81;37.08;101021.50;5034110;28;20029;-68
2022/06/04 11:45:08;;;;;;;5.90;3.00;;;;;;;26.75;36.42;101023.72;5033848;28;20033;-68
2022/06/04 11:47:48;;;;;;;4.95;2.60;;;;;;;26.65;36.16;101025.44;5032304;28;20033;-69
2022/06/04 11:50:26;;;;;;;3.03;2.20;;;;;;;26.84;35.40;101030.19;5035499;28;20486;-68
2022/06/04 11:53:07;;;;;;;3.95;2.50;;;;;;;27.06;35.43;101031.19;5033757;28;20120;-69
2022/06/04 11:55:40;;;;;;;3.50;2.15;;;;;;;26.95;35.41;101030.19;5033697;28;20025;-69
2022/06/04 11:58:52;;;;;;;3.35;2.42;;;;;;;26.69;35.46;101016.13;5033781;28;20072;-69
2022/06/04 12:01:35;;;;;;;6.88;2.55;;;;;;;26.42;35.02;101042.50;4992052;28;20046;-69
2022/06/04 12:04:14;;;;;;;4.30;2.40;;;;;;;26.38;36.51;101038.34;5029896;28;20049;-68